Time;durP1;ratioP1;P1;durP2;ratioP2;P2;SDS_P1;SDS_P2;PMS_P1;PMS_P2;Temp;Humidity;BMP_temperature;BMP_pressure;BME280_temperature;BME280_humidity;BME280_pressure;Samples;Min_cycle;Max_cycle;Signal;HPM_P1;HPM_P2
2023/04/08 00:01:53;;;;;;;13.50;9.80;;;8.10;21.60;;;;;;7370555;19;20011;-75
2023/04/08 00:04:23;;;;;;;15.60;9.93;;;8.10;21.60;;;;;;7367899;19;20080;-75
2023/04/08 00:06:53;;;;;;;16.60;11.30;;;8.10;20.90;;;;;;7370754;19;20092;-75
2023/04/08 00:09:23;;;;;;;12.23;9.80;;;8.00;21.60;;;;;;7390618;19;20014;-75
2023/04/08 00:11:55;;;;;;;14.20;10.02;;;8.00;21.70;;;;;;7371012;19;20018;-74
2023/04/08 00:14:28;;;;;;;15.57;10.60;;;8.00;21.70;;;;;;7367870;19;20058;-74
2023/04/08 00:16:57;;;;;;;16.08;11.20;;;8.00;21.50;;;;;;7370524;19;20021;-74
2023/04/08 00:19:28;;;;;;;12.82;9.07;;;8.00;21.60;;;;;;7369266;19;20014;-75
2023/04/08 00:21:58;;;;;;;16.75;11.40;;;8.00;21.50;;;;;;7370218;19;20022;-74
2023/04/08 00:24:28;;;;;;;15.50;10.95;;;8.00;21.70;;;;;;7389448;19;20501;-74
2023/04/08 00:26:58;;;;;;;16.27;10.75;;;8.00;21.70;;;;;;7370615;19;20014;-74
2023/04/08 00:29:31;;;;;;;16.73;11.57;;;7.90;22.50;;;;;;7368005;19;20014;-74
2023/04/08 00:32:02;;;;;;;14.90;10.90;;;7.90;22.70;;;;;;7371721;19;20487;-75
2023/04/08 00:34:32;;;;;;;17.00;11.68;;;7.90;23.20;;;;;;7368216;19;20263;-75
2023/04/08 00:37:02;;;;;;;13.85;10.68;;;7.90;23.20;;;;;;7370481;19;20027;-74
2023/04/08 00:39:32;;;;;;;16.23;11.73;;;7.90;23.00;;;;;;7389387;19;20025;-73
2023/04/08 00:42:02;;;;;;;16.02;11.75;;;7.90;23.00;;;;;;7369542;19;20010;-74
2023/04/08 00:44:34;;;;;;;16.60;12.18;;;7.90;23.00;;;;;;7367249;19;20081;-74
2023/04/08 00:47:05;;;;;;;16.38;11.63;;;7.90;23.40;;;;;;7370597;19;20086;-73
2023/04/08 00:49:35;;;;;;;15.73;11.18;;;7.90;23.10;;;;;;7368179;19;20040;-73
2023/04/08 00:52:05;;;;;;;17.02;12.32;;;7.90;23.30;;;;;;7370182;19;20010;-74
2023/04/08 00:54:35;;;;;;;18.10;11.90;;;7.90;23.20;;;;;;7386928;19;20035;-75
2023/04/08 00:57:06;;;;;;;18.33;12.10;;;7.90;23.20;;;;;;7369955;19;20066;-74
2023/04/08 00:59:38;;;;;;;16.63;11.73;;;7.90;23.20;;;;;;7368236;19;20003;-73
2023/04/08 01:02:15;;;;;;;15.07;11.88;;;8.00;23.10;;;;;;7367963;19;20097;-74
2023/04/08 01:04:54;;;;;;;16.20;11.57;;;8.00;22.40;;;;;;7367895;19;20014;-74
2023/04/08 01:07:29;;;;;;;17.20;12.50;;;7.90;22.50;;;;;;7368862;19;20010;-74
2023/04/08 01:10:00;;;;;;;;;;;7.90;22.20;;;;;;7368879;19;20340;-74
2023/04/08 01:12:32;;;;;;;17.23;11.77;;;7.90;22.70;;;;;;7390577;19;19930;-75
2023/04/08 01:15:08;;;;;;;17.35;12.48;;;7.80;22.40;;;;;;7366785;19;20098;-74
2023/04/08 01:17:39;;;;;;;14.80;11.70;;;7.80;22.90;;;;;;7369005;19;20434;-74
2023/04/08 01:20:11;;;;;;;17.55;11.95;;;7.80;23.20;;;;;;7368224;19;20406;-75
2023/04/08 01:22:53;;;;;;;17.23;12.20;;;7.80;22.80;;;;;;7367959;19;20496;-73
2023/04/08 01:25:32;;;;;;;16.58;11.98;;;7.80;23.00;;;;;;7366218;19;20011;-74
2023/04/08 01:28:08;;;;;;;16.77;11.82;;;7.70;22.90;;;;;;7369222;19;20006;-73
2023/04/08 01:30:40;;;;;;;17.25;11.93;;;7.80;23.20;;;;;;7389104;19;20014;-73
2023/04/08 01:33:13;;;;;;;15.15;11.07;;;7.70;22.80;;;;;;7367841;19;20014;-74
2023/04/08 01:35:44;;;;;;;18.10;12.23;;;7.70;22.90;;;;;;7367241;19;20017;-74
2023/04/08 01:38:17;;;;;;;14.35;11.18;;;7.70;22.90;;;;;;7368802;19;20010;-73
2023/04/08 01:40:49;;;;;;;17.08;10.88;;;7.80;22.70;;;;;;7366641;19;20018;-73
2023/04/08 01:43:22;;;;;;;15.07;10.85;;;7.70;21.40;;;;;;7367609;19;20013;-73
2023/04/08 01:45:56;;;;;;;17.13;11.98;;;7.70;21.30;;;;;;7368246;19;20036;-73
2023/04/08 01:48:28;;;;;;;16.90;12.18;;;7.70;21.40;;;;;;7388865;19;20013;-74
2023/04/08 01:50:59;;;;;;;15.95;11.77;;;7.70;21.70;;;;;;7367146;19;20514;-73
2023/04/08 01:53:29;;;;;;;15.05;10.88;;;7.70;21.30;;;;;;7366349;19;20016;-74
2023/04/08 01:56:03;;;;;;;17.92;11.77;;;7.70;21.30;;;;;;7368224;19;20014;-73
2023/04/08 01:58:38;;;;;;;;;;;7.70;21.80;;;;;;7366702;19;20006;-73
2023/04/08 02:01:13;;;;;;;18.15;12.05;;;7.70;21.40;;;;;;7366390;19;19963;-73
2023/04/08 02:03:45;;;;;;;16.23;11.60;;;7.60;21.90;;;;;;7386638;19;20078;-74
2023/04/08 02:06:16;;;;;;;16.83;12.40;;;7.70;22.10;;;;;;7370354;19;20458;-74
2023/04/08 02:08:45;;;;;;;18.35;12.02;;;7.70;22.20;;;;;;7374933;19;20473;-74
2023/04/08 02:11:15;;;;;;;17.65;12.10;;;7.70;22.60;;;;;;7375063;19;20006;-74
2023/04/08 02:13:48;;;;;;;16.95;12.43;;;7.70;22.40;;;;;;7373329;19;20036;-74
2023/04/08 02:16:24;;;;;;;18.52;12.82;;;7.60;22.30;;;;;;7375921;19;20011;-74
2023/04/08 02:18:59;;;;;;;18.63;13.10;;;7.70;22.60;;;;;;7374286;19;20026;-73
2023/04/08 02:21:35;;;;;;;18.75;12.85;;;7.70;22.40;;;;;;7396130;19;20014;-73
2023/04/08 02:24:09;;;;;;;16.02;12.25;;;7.60;21.90;;;;;;7370819;19;20014;-74
2023/04/08 02:26:41;;;;;;;17.97;12.70;;;7.50;22.20;;;;;;7374722;19;20017;-74
2023/04/08 02:29:16;;;;;;;19.13;13.63;;;7.50;22.90;;;;;;7374020;19;20280;-74
2023/04/08 02:31:47;;;;;;;17.90;13.40;;;7.50;22.60;;;;;;7374768;19;20030;-74
2023/04/08 02:34:17;;;;;;;17.25;12.30;;;7.50;23.00;;;;;;7373782;19;20027;-74
2023/04/08 02:36:49;;;;;;;20.25;12.13;;;7.50;23.10;;;;;;7396571;19;20011;-74
2023/04/08 02:39:19;;;;;;;19.27;13.32;;;7.50;23.10;;;;;;7371731;19;20007;-73
2023/04/08 02:41:49;;;;;;;20.95;13.85;;;7.50;23.10;;;;;;7374009;19;20031;-73
2023/04/08 02:44:22;;;;;;;18.33;12.90;;;7.50;23.20;;;;;;7372606;19;20013;-72
2023/04/08 02:46:52;;;;;;;18.90;12.90;;;7.50;22.80;;;;;;7374480;19;20014;-73
2023/04/08 02:49:22;;;;;;;18.65;13.00;;;7.50;22.80;;;;;;7371747;19;20023;-73
2023/04/08 02:51:52;;;;;;;22.13;12.95;;;7.50;23.10;;;;;;7373977;19;20515;-74
2023/04/08 02:54:21;;;;;;;21.02;13.75;;;7.50;23.20;;;;;;7390178;19;20034;-74
2023/04/08 02:56:51;;;;;;;23.08;13.98;;;7.50;23.50;;;;;;7373065;19;20035;-74
2023/04/08 02:59:24;;;;;;;19.40;13.88;;;7.50;23.40;;;;;;7370092;19;20056;-73
2023/04/08 03:01:54;;;;;;;24.88;15.57;;;7.40;23.80;;;;;;7373270;19;20098;-73
2023/04/08 03:04:24;;;;;;;22.13;14.15;;;7.50;23.80;;;;;;7369287;19;20035;-73
2023/04/08 03:06:54;;;;;;;22.98;14.52;;;7.40;24.20;;;;;;7373715;19;20018;-73
2023/04/08 03:09:24;;;;;;;24.60;15.40;;;7.40;24.40;;;;;;7392538;19;20010;-73
2023/04/08 03:11:54;;;;;;;25.10;15.82;;;7.40;24.60;;;;;;7373106;19;20045;-73
2023/04/08 03:14:26;;;;;;;25.02;15.68;;;7.40;25.10;;;;;;7370607;19;20011;-74
2023/04/08 03:16:56;;;;;;;24.48;15.55;;;7.40;25.00;;;;;;7372966;19;20015;-73
2023/04/08 03:19:26;;;;;;;25.38;15.55;;;7.40;24.90;;;;;;7369110;19;20010;-73
2023/04/08 03:21:56;;;;;;;23.98;14.90;;;7.30;24.90;;;;;;7372925;19;20015;-73
2023/04/08 03:24:26;;;;;;;27.27;15.82;;;7.40;25.60;;;;;;7390349;19;20019;-73
2023/04/08 03:26:56;;;;;;;23.73;14.82;;;7.40;25.50;;;;;;7372851;19;20014;-74
2023/04/08 03:29:29;;;;;;;24.98;15.40;;;7.30;26.30;;;;;;7370296;19;20027;-73
2023/04/08 03:31:59;;;;;;;29.15;15.65;;;7.30;27.00;;;;;;7373090;19;20017;-74
2023/04/08 03:34:29;;;;;;;26.52;15.43;;;7.30;27.00;;;;;;7369907;19;20120;-74
2023/04/08 03:36:59;;;;;;;26.65;15.50;;;7.20;27.80;;;;;;7372711;19;20021;-73
2023/04/08 03:39:29;;;;;;;24.77;15.68;;;7.30;27.90;;;;;;7391805;19;20025;-73
2023/04/08 03:42:01;;;;;;;25.75;15.00;;;7.30;27.90;;;;;;7372028;19;20027;-73
2023/04/08 03:44:34;;;;;;;29.85;15.90;;;7.30;27.80;;;;;;7368437;19;20039;-73
2023/04/08 03:47:04;;;;;;;26.98;15.57;;;7.30;27.40;;;;;;7372396;19;20504;-74
2023/04/08 03:49:34;;;;;;;25.83;16.13;;;7.30;27.70;;;;;;7368995;19;20027;-73
2023/04/08 03:52:03;;;;;;;27.58;15.70;;;7.30;27.10;;;;;;7372229;19;20042;-72
2023/04/08 03:54:33;;;;;;;26.05;15.70;;;7.20;27.80;;;;;;7390808;19;20020;-74
2023/04/08 03:57:03;;;;;;;25.95;14.60;;;7.20;27.90;;;;;;7371986;19;20044;-74
2023/04/08 03:59:36;;;;;;;26.88;15.57;;;7.20;28.10;;;;;;7370089;19;20015;-74
2023/04/08 04:02:06;;;;;;;25.00;15.60;;;7.20;27.90;;;;;;7372280;19;20015;-74
2023/04/08 04:04:37;;;;;;;26.08;16.73;;;7.00;28.10;;;;;;7369769;19;20002;-74
2023/04/08 04:07:07;;;;;;;31.80;16.98;;;7.00;28.50;;;;;;7371200;19;20022;-72
2023/04/08 04:09:37;;;;;;;30.42;16.75;;;6.90;29.90;;;;;;7391430;19;20021;-74
2023/04/08 04:12:07;;;;;;;32.13;18.25;;;6.80;30.80;;;;;;7371432;19;20011;-74
2023/04/08 04:14:39;;;;;;;32.25;17.23;;;6.80;31.10;;;;;;7369209;19;20006;-74
2023/04/08 04:17:10;;;;;;;33.42;18.23;;;6.70;31.00;;;;;;7371779;19;20021;-74
2023/04/08 04:19:39;;;;;;;33.95;18.38;;;6.70;32.30;;;;;;7369941;19;20083;-74
2023/04/08 04:22:09;;;;;;;31.58;17.85;;;6.70;33.30;;;;;;7371855;19;20015;-74
2023/04/08 04:24:39;;;;;;;35.88;19.48;;;6.60;33.30;;;;;;7389272;19;20035;-75
2023/04/08 04:27:09;;;;;;;34.85;18.13;;;6.50;33.30;;;;;;7370773;19;20471;-75
2023/04/08 04:29:42;;;;;;;31.33;17.98;;;6.50;34.50;;;;;;7367997;19;20026;-74
2023/04/08 04:32:12;;;;;;;38.42;21.05;;;6.50;35.00;;;;;;7371091;19;20022;-75
2023/04/08 04:34:43;;;;;;;36.00;18.20;;;6.50;35.00;;;;;;7368710;19;20035;-73
2023/04/08 04:37:13;;;;;;;34.92;19.48;;;6.50;35.50;;;;;;7371284;19;20085;-74
2023/04/08 04:39:43;;;;;;;36.92;19.92;;;6.40;35.50;;;;;;7390214;19;20418;-74
2023/04/08 04:42:13;;;;;;;32.50;18.60;;;6.40;36.50;;;;;;7370121;19;20007;-73
2023/04/08 04:44:46;;;;;;;32.55;19.25;;;6.40;37.00;;;;;;7367464;19;20053;-73
2023/04/08 04:47:16;;;;;;;33.53;19.77;;;6.40;37.40;;;;;;7369452;19;20005;-73
2023/04/08 04:49:47;;;;;;;34.13;19.10;;;6.30;37.80;;;;;;7368557;19;20007;-74
2023/04/08 04:52:17;;;;;;;35.42;20.02;;;6.40;38.90;;;;;;7370870;19;20002;-74
2023/04/08 04:54:46;;;;;;;34.22;19.38;;;6.30;39.10;;;;;;7389900;19;20011;-75
2023/04/08 04:57:16;;;;;;;36.20;20.10;;;6.30;39.00;;;;;;7371209;19;20459;-72
2023/04/08 04:59:49;;;;;;;35.38;20.67;;;6.30;39.10;;;;;;7368361;19;20013;-73
2023/04/08 05:02:19;;;;;;;34.58;20.85;;;6.30;39.20;;;;;;7370512;19;20352;-73
2023/04/08 05:04:49;;;;;;;39.95;21.05;;;6.30;39.20;;;;;;7367878;19;20040;-74
2023/04/08 05:07:19;;;;;;;38.40;20.42;;;6.30;39.40;;;;;;7370796;19;20006;-73
2023/04/08 05:09:49;;;;;;;38.15;20.67;;;6.30;40.00;;;;;;7377815;19;20010;-73
2023/04/08 05:12:19;;;;;;;37.78;21.00;;;6.20;40.10;;;;;;7392130;19;20006;-75
2023/04/08 05:14:51;;;;;;;36.53;21.05;;;6.30;40.30;;;;;;7367202;19;20036;-74
2023/04/08 05:17:21;;;;;;;38.28;20.35;;;6.30;40.00;;;;;;7367563;19;20014;-75
2023/04/08 05:19:52;;;;;;;37.97;21.98;;;6.30;40.50;;;;;;7368162;19;20027;-74
2023/04/08 05:22:22;;;;;;;40.15;21.58;;;6.30;40.60;;;;;;7368645;19;20076;-74
2023/04/08 05:24:52;;;;;;;33.90;19.58;;;6.40;40.60;;;;;;7366281;19;20446;-74
2023/04/08 05:27:22;;;;;;;38.22;21.52;;;6.40;40.50;;;;;;7389691;19;20010;-74
2023/04/08 05:29:54;;;;;;;36.55;20.00;;;6.40;40.30;;;;;;7366723;19;20022;-73
2023/04/08 05:32:24;;;;;;;34.20;18.80;;;6.40;40.50;;;;;;7368294;19;20014;-74
2023/04/08 05:34:54;;;;;;;38.10;20.40;;;6.50;40.50;;;;;;7367194;19;20013;-74
2023/04/08 05:37:24;;;;;;;35.58;21.02;;;6.60;39.40;;;;;;7367830;19;20021;-73
2023/04/08 05:39:54;;;;;;;35.50;19.63;;;6.50;39.30;;;;;;7367148;19;20006;-74
2023/04/08 05:42:24;;;;;;;35.78;20.42;;;6.50;39.10;;;;;;7393269;19;20010;-74
2023/04/08 05:44:56;;;;;;;34.92;20.08;;;6.60;39.30;;;;;;7372339;19;20379;-74
2023/04/08 05:47:26;;;;;;;37.70;20.63;;;6.70;39.50;;;;;;7375406;19;20002;-75
2023/04/08 05:49:56;;;;;;;33.33;20.02;;;6.70;38.60;;;;;;7374422;19;20011;-74
2023/04/08 05:52:26;;;;;;;33.40;19.17;;;6.70;38.40;;;;;;7376841;19;20002;-72
2023/04/08 05:54:56;;;;;;;35.55;19.95;;;6.80;39.00;;;;;;7373538;19;20416;-74
2023/04/08 05:57:26;;;;;;;30.98;18.75;;;6.90;38.60;;;;;;7397009;19;20031;-73
2023/04/08 05:59:58;;;;;;;31.73;18.70;;;6.90;36.60;;;;;;7372368;19;20010;-73
2023/04/08 06:02:28;;;;;;;31.65;18.83;;;6.90;36.80;;;;;;7374637;19;20010;-74
2023/04/08 06:04:58;;;;;;;34.45;18.98;;;6.90;36.70;;;;;;7373542;19;20011;-73
2023/04/08 06:07:29;;;;;;;30.00;18.13;;;7.00;37.10;;;;;;7374175;19;20076;-73
2023/04/08 06:09:59;;;;;;;36.55;19.50;;;7.10;36.40;;;;;;7373760;19;20007;-74
2023/04/08 06:12:28;;;;;;;32.45;18.92;;;7.00;35.30;;;;;;7396303;19;20028;-73
2023/04/08 06:15:01;;;;;;;36.17;20.40;;;7.00;33.90;;;;;;7373029;19;20017;-74
2023/04/08 06:17:31;;;;;;;29.30;18.25;;;7.10;34.20;;;;;;7374243;19;20018;-74
2023/04/08 06:20:03;;;;;;;30.52;18.67;;;7.10;33.80;;;;;;7373373;19;20467;-74
2023/04/08 06:22:33;;;;;;;30.85;18.50;;;7.10;32.60;;;;;;7373475;19;20011;-74
2023/04/08 06:25:03;;;;;;;31.00;17.98;;;6.90;32.50;;;;;;7372407;19;20031;-72
2023/04/08 06:27:32;;;;;;;30.98;18.08;;;7.10;34.10;;;;;;7395190;19;20019;-73
2023/04/08 06:30:05;;;;;;;25.33;16.52;;;7.10;32.70;;;;;;7371907;19;20020;-74
2023/04/08 06:32:36;;;;;;;32.35;18.67;;;7.10;32.30;;;;;;7373005;19;20007;-73
2023/04/08 06:35:07;;;;;;;31.58;18.73;;;7.30;32.80;;;;;;7373710;19;20098;-74
2023/04/08 06:37:37;;;;;;;29.58;18.17;;;7.20;31.40;;;;;;7374340;19;20013;-74
2023/04/08 06:40:09;;;;;;;26.50;17.92;;;7.30;31.10;;;;;;7371516;19;20464;-74
2023/04/08 06:42:41;;;;;;;27.52;17.70;;;7.20;29.30;;;;;;7394764;19;20019;-74
2023/04/08 06:45:14;;;;;;;28.00;17.35;;;7.40;30.40;;;;;;7372053;19;20078;-73
2023/04/08 06:47:44;;;;;;;26.13;17.00;;;7.40;28.20;;;;;;7373735;19;20018;-74
2023/04/08 06:50:14;;;;;;;28.95;18.45;;;7.60;27.50;;;;;;7372414;19;20010;-74
2023/04/08 06:52:44;;;;;;;28.85;17.55;;;7.80;28.20;;;;;;7372744;19;20010;-74
2023/04/08 06:55:14;;;;;;;24.83;16.85;;;7.90;26.30;;;;;;7373562;19;20052;-72
2023/04/08 06:57:44;;;;;;;25.52;16.60;;;7.70;24.40;;;;;;7395602;19;20010;-74
2023/04/08 07:00:17;;;;;;;25.23;15.73;;;7.80;22.90;;;;;;7371582;19;20027;-73
2023/04/08 07:02:47;;;;;;;22.50;15.20;;;7.90;22.40;;;;;;7371559;19;20018;-74
2023/04/08 07:05:20;;;;;;;26.92;17.05;;;8.10;21.40;;;;;;7370269;19;20014;-74
2023/04/08 07:07:50;;;;;;;24.10;15.23;;;8.20;22.80;;;;;;7373319;19;20019;-74
2023/04/08 07:10:20;;;;;;;25.00;15.77;;;8.00;18.30;;;;;;7370083;19;20013;-73
2023/04/08 07:12:51;;;;;;;24.98;15.48;;;8.10;21.60;;;;;;7371504;19;20025;-72
2023/04/08 07:15:24;;;;;;;23.35;15.05;;;8.20;20.10;;;;;;7392342;19;20086;-73
2023/04/08 07:17:55;;;;;;;22.52;14.90;;;8.30;19.10;;;;;;7372522;19;20069;-75
2023/04/08 07:20:25;;;;;;;21.70;14.57;;;8.40;18.90;;;;;;7370956;19;20014;-73
2023/04/08 07:22:55;;;;;;;19.02;14.00;;;8.40;16.00;;;;;;7371034;19;20015;-73
2023/04/08 07:25:25;;;;;;;22.48;14.55;;;8.30;15.80;;;;;;7371178;19;20011;-74
2023/04/08 07:27:56;;;;;;;21.25;13.48;;;8.50;14.70;;;;;;7370068;19;20015;-74
2023/04/08 07:30:28;;;;;;;23.42;14.73;;;8.60;14.90;;;;;;7391362;19;20022;-73
2023/04/08 07:32:58;;;;;;;19.60;13.85;;;8.60;12.50;;;;;;7370984;19;20015;-74
2023/04/08 07:35:30;;;;;;;20.10;13.90;;;8.70;13.20;;;;;;7369587;19;20007;-74
2023/04/08 07:38:00;;;;;;;18.58;12.20;;;8.80;12.20;;;;;;7370888;19;20022;-74
2023/04/08 07:40:30;;;;;;;18.17;12.52;;;8.80;11.10;;;;;;7370584;19;20046;-74
2023/04/08 07:43:00;;;;;;;18.02;12.23;;;8.80;9.80;;;;;;7370734;19;20086;-74
2023/04/08 07:45:33;;;;;;;21.25;12.82;;;8.70;9.00;;;;;;7392827;19;20020;-73
2023/04/08 07:48:02;;;;;;;15.70;11.88;;;8.60;8.90;;;;;;7371794;19;20504;-73
2023/04/08 07:50:32;;;;;;;17.83;11.60;;;8.70;5.60;;;;;;7370721;19;20010;-74
2023/04/08 07:53:23;;;;;;;19.70;12.00;;;8.50;6.20;;;;;;7369171;19;20018;-74
2023/04/08 07:55:53;;;;;;;17.83;11.55;;;8.50;6.70;;;;;;7372425;19;20015;-74
2023/04/08 07:58:23;;;;;;;18.15;12.63;;;8.60;4.60;;;;;;7370292;19;20017;-74
2023/04/08 08:00:57;;;;;;;16.27;11.68;;;8.60;4.10;;;;;;7369056;19;20034;-74
2023/04/08 08:03:27;;;;;;;19.77;12.60;;;8.70;4.80;;;;;;7390096;19;20022;-74
2023/04/08 08:05:58;;;;;;;19.65;12.18;;;8.40;4.20;;;;;;7370680;19;20505;-74
2023/04/08 08:08:27;;;;;;;19.80;12.80;;;8.80;5.80;;;;;;7369504;19;20470;-74
2023/04/08 08:10:57;;;;;;;14.57;11.50;;;8.90;2.10;;;;;;7369002;19;20014;-74
2023/04/08 08:13:27;;;;;;;16.77;12.68;;;8.90;2.10;;;;;;7367374;19;20026;-76
2023/04/08 08:16:00;;;;;;;19.15;13.48;;;8.90;1.80;;;;;;7371202;19;20018;-75
2023/04/08 08:18:30;;;;;;;18.95;13.27;;;9.10;1.00;;;;;;7393014;19;20013;-74
2023/04/08 08:21:02;;;;;;;19.55;12.65;;;9.20;1.00;;;;;;7369952;19;20014;-74
2023/04/08 08:23:32;;;;;;;16.45;12.52;;;9.20;1.00;;;;;;7369428;19;20042;-75
2023/04/08 08:26:03;;;;;;;20.33;13.80;;;9.50;1.00;;;;;;7371423;19;20466;-75
2023/04/08 08:28:33;;;;;;;18.40;13.20;;;9.60;1.00;;;;;;7368075;19;20436;-74
2023/04/08 08:31:05;;;;;;;18.20;13.32;;;9.40;1.00;;;;;;7368428;19;20014;-73
2023/04/08 08:33:35;;;;;;;19.35;13.10;;;9.30;1.00;;;;;;7389597;19;20010;-74
2023/04/08 08:36:06;;;;;;;18.63;13.13;;;9.70;1.00;;;;;;7370479;19;20010;-75
2023/04/08 08:38:36;;;;;;;16.35;12.43;;;9.50;1.00;;;;;;7370138;19;20035;-73
2023/04/08 08:41:06;;;;;;;18.58;12.73;;;9.70;1.00;;;;;;7369629;19;20082;-74
2023/04/08 08:43:37;;;;;;;17.48;13.07;;;9.60;1.00;;;;;;7367554;19;20020;-75
2023/04/08 08:46:12;;;;;;;17.98;12.07;;;9.60;1.00;;;;;;7370644;19;20011;-76
2023/04/08 08:48:42;;;;;;;15.52;12.07;;;9.70;1.00;;;;;;7388762;19;20011;-74
2023/04/08 08:51:12;;;;;;;16.08;12.05;;;9.70;1.00;;;;;;7368862;19;20003;-75
2023/04/08 08:53:44;;;;;;;17.30;13.00;;;10.10;1.00;;;;;;7366786;19;20010;-75
2023/04/08 08:56:14;;;;;;;14.73;11.95;;;9.90;1.00;;;;;;7370283;19;20438;-73
2023/04/08 08:58:48;;;;;;;16.27;12.38;;;9.60;1.00;;;;;;7369227;19;20542;-75
2023/04/08 09:01:37;;;;;;;15.57;11.82;;;9.70;1.00;;;;;;7369978;19;20027;-73
2023/04/08 09:04:17;;;;;;;15.55;11.73;;;9.90;1.00;;;;;;7367336;19;20014;-74
2023/04/08 09:06:49;;;;;;;17.60;13.70;;;10.10;1.00;;;;;;7390790;19;20022;-75
2023/04/08 09:09:20;;;;;;;15.40;12.60;;;10.10;1.00;;;;;;7367391;19;20011;-75
2023/04/08 09:11:49;;;;;;;16.77;12.30;;;10.00;1.00;;;;;;7368444;19;20384;-75
2023/04/08 09:14:24;;;;;;;17.85;12.68;;;10.10;1.00;;;;;;7367758;19;20015;-75
2023/04/08 09:16:56;;;;;;;;;;;10.50;1.00;;;;;;7368313;19;20344;-75
2023/04/08 09:19:26;;;;;;;18.58;12.95;;;10.50;1.00;;;;;;7367432;19;19935;-75
2023/04/08 09:22:10;;;;;;;19.50;13.30;;;10.50;1.00;;;;;;7369407;19;20011;-76
2023/04/08 09:24:40;;;;;;;15.45;12.27;;;10.60;1.00;;;;;;7388669;19;20036;-75
2023/04/08 09:27:10;;;;;;;16.35;12.65;;;10.50;1.00;;;;;;7367586;19;20041;-75
2023/04/08 09:29:40;;;;;;;16.10;12.75;;;11.00;1.00;;;;;;7365758;19;20021;-75
2023/04/08 09:32:13;;;;;;;17.65;12.90;;;11.00;1.00;;;;;;7368179;19;20362;-75
2023/04/08 09:34:42;;;;;;;18.55;13.23;;;10.80;1.00;;;;;;7365841;19;20006;-74
2023/04/08 09:37:12;;;;;;;16.60;12.88;;;10.60;1.00;;;;;;7369552;19;20098;-75
2023/04/08 09:39:42;;;;;;;17.70;13.20;;;10.70;1.00;;;;;;7388324;19;20021;-75
2023/04/08 09:42:14;;;;;;;15.45;12.55;;;10.70;1.00;;;;;;7366815;19;20006;-74
2023/04/08 09:44:48;;;;;;;18.40;12.90;;;11.10;1.00;;;;;;7366408;19;20010;-74
2023/04/08 09:47:29;;;;;;;16.03;12.53;;;11.20;1.00;;;;;;7367850;19;20016;-75
2023/04/08 09:50:05;;;;;;;15.55;12.07;;;11.40;1.00;;;;;;7367292;19;20027;-75
2023/04/08 09:52:39;;;;;;;15.90;12.55;;;11.20;1.00;;;;;;7366090;19;20082;-74
2023/04/08 09:55:13;;;;;;;14.18;11.55;;;11.10;1.00;;;;;;7367558;19;20000;-74
2023/04/08 09:57:48;;;;;;;15.27;10.82;;;11.20;1.00;;;;;;7389664;19;20006;-75
2023/04/08 10:00:21;;;;;;;15.45;11.57;;;11.30;1.00;;;;;;7364229;19;20017;-74
2023/04/08 10:02:57;;;;;;;17.77;12.52;;;11.50;1.00;;;;;;7365596;19;20086;-75
2023/04/08 10:05:29;;;;;;;15.50;12.35;;;11.40;1.00;;;;;;7363806;19;20006;-74
2023/04/08 10:07:59;;;;;;;15.90;11.98;;;11.00;1.00;;;;;;7365953;19;20338;-75
2023/04/08 10:10:29;;;;;;;14.32;11.35;;;10.80;1.00;;;;;;7364730;19;20013;-75
2023/04/08 10:12:59;;;;;;;15.57;12.32;;;10.40;1.00;;;;;;7367134;19;20041;-74
2023/04/08 10:15:30;;;;;;;16.92;12.35;;;10.60;1.00;;;;;;7387506;19;20043;-75
2023/04/08 10:18:30;;;;;;;13.98;11.25;;;10.70;1.00;;;;;;7366385;19;20093;-75
2023/04/08 10:21:04;;;;;;;21.73;15.00;;;10.90;1.00;;;;;;7366477;19;20054;-75
2023/04/08 10:23:58;;;;;;;15.52;12.25;;;10.50;1.00;;;;;;7365389;19;20471;-75
2023/04/08 10:26:36;;;;;;;15.82;11.70;;;10.50;1.00;;;;;;7366791;19;20014;-73
2023/04/08 10:29:34;;;;;;;17.00;12.27;;;10.70;1.00;;;;;;7372852;19;20039;-74
2023/04/08 10:32:04;;;;;;;14.77;10.95;;;10.50;1.00;;;;;;7374279;19;20033;-75
2023/04/08 10:34:34;;;;;;;17.48;11.88;;;10.30;1.00;;;;;;7371734;19;20014;-74
2023/04/08 10:37:09;;;;;;;16.70;11.88;;;10.40;1.00;;;;;;7374353;19;20466;-75
2023/04/08 10:39:39;;;;;;;16.13;11.35;;;10.50;1.00;;;;;;7392741;19;20020;-75
2023/04/08 10:42:11;;;;;;;17.23;12.13;;;10.50;1.00;;;;;;7373760;19;20681;-73
2023/04/08 10:44:47;;;;;;;15.18;11.60;;;10.30;1.00;;;;;;7372637;19;20006;-74
2023/04/08 10:47:17;;;;;;;15.07;12.23;;;10.30;1.00;;;;;;7374794;19;20007;-75
2023/04/08 10:49:48;;;;;;;15.77;11.55;;;10.50;1.00;;;;;;7371177;19;20502;-73
2023/04/08 10:52:22;;;;;;;18.35;11.93;;;10.20;1.00;;;;;;7373775;19;20007;-74
2023/04/08 10:54:52;;;;;;;14.50;11.40;;;10.30;1.00;;;;;;7372455;19;20015;-74
2023/04/08 10:57:26;;;;;;;14.30;11.00;;;10.40;1.00;;;;;;7394796;19;20479;-75
2023/04/08 10:59:56;;;;;;;15.07;10.82;;;10.30;1.00;;;;;;7370193;19;20143;-74
2023/04/08 11:02:34;;;;;;;16.02;11.43;;;10.40;1.00;;;;;;7370760;19;20006;-74
2023/04/08 11:05:04;;;;;;;16.10;11.65;;;10.40;1.00;;;;;;7372252;19;20010;-74
2023/04/08 11:07:43;;;;;;;13.38;10.65;;;10.40;1.00;;;;;;7372592;19;20011;-74
2023/04/08 11:10:13;;;;;;;14.13;10.98;;;10.10;1.00;;;;;;7371486;19;20015;-74
2023/04/08 11:12:44;;;;;;;15.73;11.13;;;10.40;1.00;;;;;;7393947;19;20391;-73
2023/04/08 11:15:15;;;;;;;13.05;10.38;;;10.30;1.00;;;;;;7372823;19;21400;-74
2023/04/08 11:17:45;;;;;;;12.48;10.30;;;10.40;1.00;;;;;;7372938;19;20014;-75
2023/04/08 11:20:15;;;;;;;13.65;10.32;;;10.40;1.00;;;;;;7369723;19;20027;-75
2023/04/08 11:22:49;;;;;;;13.70;9.70;;;10.40;1.00;;;;;;7371917;19;20017;-75
2023/04/08 11:25:19;;;;;;;14.57;10.38;;;10.20;1.00;;;;;;7372064;19;20015;-75
2023/04/08 11:27:51;;;;;;;11.75;9.75;;;10.30;1.00;;;;;;7373250;19;20018;-73
2023/04/08 11:30:21;;;;;;;13.95;10.55;;;10.30;1.00;;;;;;7391418;19;20014;-75
2023/04/08 11:32:51;;;;;;;12.68;10.15;;;10.50;1.00;;;;;;7371438;19;20042;-75
2023/04/08 11:35:22;;;;;;;12.82;10.25;;;10.60;1.00;;;;;;7371323;19;20515;-75
2023/04/08 11:37:54;;;;;;;13.48;10.68;;;10.60;1.00;;;;;;7371283;19;20013;-74
2023/04/08 11:40:25;;;;;;;16.17;10.43;;;10.70;1.00;;;;;;7369170;19;20003;-75
2023/04/08 11:42:55;;;;;;;12.90;10.25;;;10.50;1.00;;;;;;7370544;19;20614;-74
2023/04/08 11:45:25;;;;;;;12.75;10.23;;;10.50;1.00;;;;;;7393191;19;20391;-74
2023/04/08 11:47:54;;;;;;;12.57;10.30;;;10.50;1.00;;;;;;7371761;19;20011;-75
2023/04/08 11:50:25;;;;;;;14.07;10.38;;;10.60;1.00;;;;;;7368956;19;20480;-75
2023/04/08 11:52:58;;;;;;;14.20;9.70;;;10.40;1.00;;;;;;7370565;19;20014;-74
2023/04/08 11:55:30;;;;;;;13.90;11.10;;;10.20;1.00;;;;;;7370689;19;20014;-74
2023/04/08 11:58:06;;;;;;;13.93;10.02;;;10.20;1.00;;;;;;7372000;19;20493;-75
2023/04/08 12:00:36;;;;;;;15.90;10.88;;;10.40;1.00;;;;;;7389743;19;20014;-75
2023/04/08 12:03:06;;;;;;;14.25;10.55;;;10.50;1.00;;;;;;7369982;19;20021;-74
2023/04/08 12:05:36;;;;;;;12.88;9.93;;;10.40;1.00;;;;;;7369735;19;20017;-75
2023/04/08 12:08:09;;;;;;;13.63;10.50;;;10.70;1.00;;;;;;7370999;19;20488;-75
2023/04/08 12:10:39;;;;;;;13.30;9.85;;;10.60;1.00;;;;;;7368095;19;20347;-73
2023/04/08 12:13:09;;;;;;;14.82;10.85;;;10.50;1.00;;;;;;7370348;19;20471;-74
2023/04/08 12:15:39;;;;;;;14.15;10.02;;;10.60;1.00;;;;;;7390874;19;20022;-74
2023/04/08 12:18:09;;;;;;;13.45;10.60;;;10.40;1.00;;;;;;7369635;19;20069;-73
2023/04/08 12:20:39;;;;;;;12.60;10.13;;;10.50;1.00;;;;;;7369603;19;20007;-74
2023/04/08 12:23:12;;;;;;;14.27;10.52;;;10.60;1.00;;;;;;7369915;19;20006;-75
2023/04/08 12:25:42;;;;;;;14.70;10.13;;;10.70;1.00;;;;;;7369869;19;20007;-75
2023/04/08 12:28:12;;;;;;;13.68;10.60;;;10.90;1.00;;;;;;7371698;19;20007;-76
2023/04/08 12:30:42;;;;;;;13.68;10.75;;;10.90;1.00;;;;;;7391452;19;20021;-74
2023/04/08 12:33:12;;;;;;;16.63;10.32;;;10.90;1.00;;;;;;7368766;19;20018;-75
2023/04/08 12:35:42;;;;;;;13.15;10.88;;;11.00;1.00;;;;;;7369178;19;20013;-70
2023/04/08 12:38:14;;;;;;;13.77;10.25;;;10.80;1.00;;;;;;7371086;19;20006;-73
2023/04/08 12:40:44;;;;;;;13.00;10.70;;;10.60;1.00;;;;;;7368577;19;20013;-75
2023/04/08 12:43:16;;;;;;;15.23;11.38;;;10.60;1.00;;;;;;7368582;19;20016;-74
2023/04/08 12:45:46;;;;;;;13.77;11.07;;;10.80;1.00;;;;;;7391744;19;20014;-75
2023/04/08 12:48:16;;;;;;;12.27;10.23;;;10.90;1.00;;;;;;7370273;19;20003;-73
2023/04/08 12:50:46;;;;;;;16.48;10.65;;;11.00;1.00;;;;;;7368038;19;20370;-75
2023/04/08 12:53:22;;;;;;;12.73;10.05;;;11.10;1.00;;;;;;7367391;19;20006;-75
2023/04/08 12:55:55;;;;;;;14.65;9.65;;;11.20;1.00;;;;;;7369652;19;20435;-75
2023/04/08 12:58:26;;;;;;;15.65;11.25;;;11.30;1.00;;;;;;7367681;19;20007;-74
2023/04/08 13:00:56;;;;;;;12.90;10.70;;;11.00;1.00;;;;;;7366867;19;20011;-75